KRDK

Red Oak Municipal Airport

Red Oak, Iowa, USA
METAR KRDK 260415Z AUTO 18004KT 10SM BKN120 OVC140 23/17 A2975 RMK AO2
Observed Flight Rules
May-26 @ 04:15 UTC (7 minutes ago) Visual Flight Rules
Wind Visibility Clouds
180° at 4 knots 10 miles
  • Broken at 12,000' AGL
  • Overcast at 14,000' AGL
Temperatures Readings
Current 23°C / 73°F
Dewpoint 17°C / 63°F
Humidity 69%
Altimeter 29.75" Hg
Pressure 1007 hPa
Elevation 318
METAR KRDK 260415Z AUTO 18004KT 10SM BKN120 OVC140 23/17 A2975 RMK AO2
Observed Flight Rules
May-26 @ 04:15 UTC
(7 minutes ago)
VFR
Wind Visibility
180° at 4 knots 10 miles
Clouds
  • Broken at 12,000' AGL
  • Overcast at 14,000' AGL
Temperature Dewpoint
23°C / 73°F 17°C / 63°F
Humidity Altimeter Pressure
69% 29.75" Hg 1007 hPa